Time;durP1;ratioP1;P1;durP2;ratioP2;P2;SDS_P1;SDS_P2;PMS_P1;PMS_P2;Temp;Humidity;BMP_temperature;BMP_pressure;BME280_temperature;BME280_humidity;BME280_pressure;Samples;Min_cycle;Max_cycle;Signal;HPM_P1;HPM_P2
2021/09/29 00:00:21;;;;;;;12.40;3.67;;;;;;;13.21;75.58;101571.88;5032637;28;20014;-42
2021/09/29 00:02:47;;;;;;;10.73;4.03;;;;;;;13.20;75.31;101575.44;5032372;28;20120;-42
2021/09/29 00:05:13;;;;;;;9.73;4.28;;;;;;;13.20;75.59;101573.63;5032248;28;20025;-43
2021/09/29 00:07:38;;;;;;;12.00;4.30;;;;;;;13.18;75.79;101580.81;5032113;28;20029;-43
2021/09/29 00:10:05;;;;;;;10.60;4.28;;;;;;;13.19;75.51;101568.66;5032043;28;20030;-42
2021/09/29 00:12:31;;;;;;;9.60;4.20;;;;;;;13.08;75.87;101564.75;5033034;28;20025;-42
2021/09/29 00:14:56;;;;;;;8.75;3.83;;;;;;;13.10;75.60;101571.34;5030980;28;20187;-43
2021/09/29 00:17:22;;;;;;;10.65;3.92;;;;;;;13.12;75.82;101570.34;5032219;28;20532;-42
2021/09/29 00:19:47;;;;;;;10.25;4.15;;;;;;;13.13;75.65;101564.19;5032428;28;20349;-42
2021/09/29 00:22:12;;;;;;;7.70;4.18;;;;;;;13.09;75.64;101564.56;5032255;28;20033;-43
2021/09/29 00:24:38;;;;;;;8.77;3.90;;;;;;;13.10;75.74;101553.19;5030995;28;20025;-43
2021/09/29 00:27:03;;;;;;;17.55;4.28;;;;;;;13.06;75.81;101551.97;5032129;28;20022;-42
2021/09/29 00:29:28;;;;;;;8.63;4.10;;;;;;;13.04;75.72;101545.34;5032121;28;20037;-42
2021/09/29 00:31:54;;;;;;;8.82;4.00;;;;;;;13.04;75.70;101543.56;5032141;28;20021;-42
2021/09/29 00:34:29;;;;;;;8.18;3.58;;;;;;;13.00;75.90;101534.50;5032066;28;20094;-42
2021/09/29 00:36:54;;;;;;;8.27;3.80;;;;;;;12.98;75.98;101535.72;4996976;28;1012024;-42
2021/09/29 00:39:20;;;;;;;7.60;3.65;;;;;;;12.96;76.04;101530.69;5034343;28;20033;-42
2021/09/29 00:41:47;;;;;;;8.07;3.85;;;;;;;12.91;76.27;101520.06;5036406;28;20033;-42
2021/09/29 00:44:12;;;;;;;11.75;3.97;;;;;;;12.91;76.26;101514.88;5036631;28;20022;-42
2021/09/29 00:46:39;;;;;;;10.77;3.90;;;;;;;12.93;76.58;101518.09;5036333;28;20075;-43
2021/09/29 00:49:04;;;;;;;11.60;3.90;;;;;;;12.93;76.33;101512.91;5036463;28;20021;-42
2021/09/29 00:51:30;;;;;;;12.48;4.40;;;;;;;12.90;76.07;101509.88;5036171;28;20055;-43
2021/09/29 00:53:55;;;;;;;10.93;4.07;;;;;;;12.90;76.15;101502.91;5036365;28;20026;-43
2021/09/29 00:56:21;;;;;;;8.80;3.88;;;;;;;12.96;75.74;101506.53;5036314;28;20037;-42
2021/09/29 00:58:46;;;;;;;8.07;3.50;;;;;;;12.89;76.24;101493.50;5036075;28;20030;-42
2021/09/29 01:01:11;;;;;;;9.20;3.95;;;;;;;12.89;76.18;101496.13;5035964;28;20030;-43
2021/09/29 01:03:38;;;;;;;11.43;3.95;;;;;;;12.86;76.58;101479.13;5035950;28;20021;-42
2021/09/29 01:06:10;;;;;;;11.27;4.22;;;;;;;12.84;76.66;101473.31;5036165;28;20025;-43
2021/09/29 01:08:44;;;;;;;9.93;4.30;;;;;;;12.83;76.41;101470.88;5036210;28;20350;-42
2021/09/29 01:11:27;;;;;;;10.55;4.03;;;;;;;12.77;76.54;101474.22;5035870;28;20472;-42
2021/09/29 01:14:09;;;;;;;13.02;4.07;;;;;;;12.83;76.67;101469.13;5035842;28;20116;-42
2021/09/29 01:16:37;;;;;;;8.63;4.45;;;;;;;12.82;76.30;101462.31;5034468;28;20064;-42
2021/09/29 01:19:10;;;;;;;8.88;3.90;;;;;;;12.79;76.59;101461.88;5035758;28;20381;-42
2021/09/29 01:21:48;;;;;;;14.35;4.25;;;;;;;12.84;76.47;101449.16;5035627;28;20380;-42
2021/09/29 01:24:36;;;;;;;9.20;4.05;;;;;;;12.88;76.30;101455.56;5035708;28;20033;-42
2021/09/29 01:27:02;;;;;;;9.60;4.65;;;;;;;12.82;76.78;101445.94;5035456;28;20114;-42
2021/09/29 01:29:28;;;;;;;11.35;4.70;;;;;;;12.83;76.69;101437.16;5034290;28;20029;-42
2021/09/29 01:31:54;;;;;;;9.85;4.13;;;;;;;12.78;77.00;101431.75;5035537;28;20029;-42
2021/09/29 01:34:19;;;;;;;9.15;4.53;;;;;;;12.81;76.76;101433.97;5035524;28;20025;-43
2021/09/29 01:36:45;;;;;;;13.05;4.45;;;;;;;12.80;77.03;101424.56;5035207;28;20041;-43
2021/09/29 01:39:13;;;;;;;11.93;4.55;;;;;;;12.77;77.00;101430.94;5035323;28;20036;-42
2021/09/29 01:41:40;;;;;;;11.55;4.07;;;;;;;12.75;77.26;101419.97;5035614;28;20829;-43
2021/09/29 01:44:06;;;;;;;8.48;3.90;;;;;;;12.72;77.30;101422.91;5035362;28;20049;-42
2021/09/29 01:46:32;;;;;;;11.48;4.18;;;;;;;12.77;77.27;101425.75;5035181;28;20034;-43
2021/09/29 01:49:06;;;;;;;14.32;4.15;;;;;;;12.75;77.23;101422.56;5035183;28;20395;-42
2021/09/29 01:51:35;;;;;;;12.05;4.20;;;;;;;12.76;77.05;101412.97;5035290;28;20025;-42
2021/09/29 01:54:01;;;;;;;10.05;4.07;;;;;;;12.81;76.79;101410.63;5035059;28;20084;-43
2021/09/29 01:56:27;;;;;;;10.40;4.38;;;;;;;12.71;77.57;101410.91;5035005;28;20472;-43
2021/09/29 01:58:52;;;;;;;11.95;4.20;;;;;;;12.66;77.26;101395.16;5035039;28;20384;-43
2021/09/29 02:01:17;;;;;;;12.18;4.30;;;;;;;12.69;77.61;101393.94;5034923;28;20029;-43
2021/09/29 02:03:45;;;;;;;11.82;4.32;;;;;;;12.71;77.20;101386.78;5034869;28;20029;-43
2021/09/29 02:06:10;;;;;;;8.32;4.03;;;;;;;12.72;77.57;101388.41;5035325;28;20029;-43
2021/09/29 02:08:35;;;;;;;12.90;4.40;;;;;;;12.71;77.64;101381.59;5033857;28;20024;-43
2021/09/29 02:11:01;;;;;;;10.05;4.45;;;;;;;12.67;77.38;101382.97;5035550;28;20503;-43
2021/09/29 02:13:26;;;;;;;9.30;4.47;;;;;;;12.70;77.03;101380.81;5035214;28;20091;-43
2021/09/29 02:15:51;;;;;;;13.38;4.30;;;;;;;12.64;77.82;101387.53;5034933;28;20033;-44
2021/09/29 02:18:17;;;;;;;11.45;4.40;;;;;;;12.66;77.45;101371.81;5034919;28;20056;-43
2021/09/29 02:20:42;;;;;;;9.60;3.92;;;;;;;12.66;77.12;101374.41;5035092;28;20025;-42
2021/09/29 02:23:07;;;;;;;7.60;4.15;;;;;;;12.65;77.46;101368.38;5035058;28;20380;-43
2021/09/29 02:25:33;;;;;;;9.82;3.90;;;;;;;12.64;77.78;101361.59;5034823;28;20395;-43
2021/09/29 02:27:58;;;;;;;12.45;4.30;;;;;;;12.60;77.98;101360.38;5034798;28;20025;-45
2021/09/29 02:30:23;;;;;;;8.68;4.40;;;;;;;12.59;77.73;101347.59;5034687;28;20357;-43
2021/09/29 02:32:49;;;;;;;8.70;4.20;;;;;;;12.59;78.13;101343.19;5034875;28;20033;-43
2021/09/29 02:35:14;;;;;;;10.25;4.40;;;;;;;12.56;78.16;101345.38;5034863;28;20032;-43
2021/09/29 02:37:40;;;;;;;11.02;4.40;;;;;;;12.55;78.26;101336.81;5034360;28;20050;-43
2021/09/29 02:40:06;;;;;;;9.27;4.07;;;;;;;12.55;78.13;101336.81;5034507;28;20026;-43
2021/09/29 02:42:32;;;;;;;10.18;4.05;;;;;;;12.62;78.28;101335.06;5034295;28;20548;-43
2021/09/29 02:44:57;;;;;;;10.15;4.40;;;;;;;12.61;77.77;101330.06;5034696;28;20061;-41
2021/09/29 02:47:22;;;;;;;10.43;4.32;;;;;;;12.66;77.82;101330.31;5034676;28;20105;-42
2021/09/29 02:49:47;;;;;;;13.05;4.35;;;;;;;12.68;77.58;101315.34;5034302;28;20044;-42
2021/09/29 02:52:13;;;;;;;13.35;4.53;;;;;;;12.61;78.96;101314.50;5034579;28;20026;-42
2021/09/29 02:54:38;;;;;;;8.68;3.97;;;;;;;12.63;79.32;101312.53;5032909;28;20032;-42
2021/09/29 02:57:03;;;;;;;7.40;4.10;;;;;;;12.59;79.37;101317.28;5034838;28;20033;-43
2021/09/29 02:59:29;;;;;;;9.98;4.00;;;;;;;12.59;79.62;101309.50;5034368;28;20032;-42
2021/09/29 03:01:54;;;;;;;8.23;4.00;;;;;;;12.62;79.37;101311.72;5033490;28;20029;-42
2021/09/29 03:04:19;;;;;;;8.60;3.90;;;;;;;12.56;79.49;101309.88;5034010;28;20026;-43
2021/09/29 03:06:45;;;;;;;8.52;3.90;;;;;;;12.61;79.37;101310.13;5032818;28;20055;-43
2021/09/29 03:09:10;;;;;;;8.55;4.03;;;;;;;12.57;79.02;101302.91;5033964;28;20029;-42
2021/09/29 03:11:35;;;;;;;8.00;3.65;;;;;;;12.60;78.85;101310.28;5034433;28;20108;-43
2021/09/29 03:14:01;;;;;;;10.27;3.80;;;;;;;12.67;78.72;101300.78;5034156;28;20029;-43
2021/09/29 03:16:26;;;;;;;7.93;3.83;;;;;;;12.71;78.70;101296.81;5033760;28;20021;-42
2021/09/29 03:18:51;;;;;;;8.35;3.53;;;;;;;12.62;78.86;101293.56;5033757;28;20172;-42
2021/09/29 03:21:17;;;;;;;11.50;3.88;;;;;;;12.60;78.79;101292.16;5034016;28;20033;-42
2021/09/29 03:23:42;;;;;;;8.43;3.78;;;;;;;12.64;78.60;101299.38;5033989;28;20028;-42
2021/09/29 03:26:08;;;;;;;11.93;4.10;;;;;;;12.61;78.83;101294.56;5033628;28;20159;-42
2021/09/29 03:28:33;;;;;;;9.48;3.85;;;;;;;12.73;78.45;101294.06;5033636;28;20103;-43
2021/09/29 03:30:58;;;;;;;10.05;4.05;;;;;;;12.73;78.48;101294.06;5033590;28;20468;-42
2021/09/29 03:33:24;;;;;;;7.50;3.55;;;;;;;12.70;78.35;101290.03;5033588;28;20037;-42
2021/09/29 03:35:50;;;;;;;7.70;3.70;;;;;;;12.71;78.21;101296.03;5033289;28;20026;-42
2021/09/29 03:38:15;;;;;;;8.57;3.83;;;;;;;12.72;78.42;101292.47;5033800;28;20029;-42
2021/09/29 03:40:40;;;;;;;11.23;3.60;;;;;;;12.73;77.98;101288.88;5033454;28;20021;-42
2021/09/29 03:43:06;;;;;;;8.63;3.50;;;;;;;12.79;77.67;101288.09;5033950;28;20057;-42
2021/09/29 03:45:31;;;;;;;8.63;3.67;;;;;;;12.79;77.76;101280.31;5033616;28;20111;-43
2021/09/29 03:47:56;;;;;;;7.32;3.22;;;;;;;12.79;77.82;101283.72;5033629;28;20427;-42
2021/09/29 03:50:22;;;;;;;9.13;3.92;;;;;;;12.83;77.60;101286.72;5033345;28;20472;-42
2021/09/29 03:52:48;;;;;;;8.43;3.00;;;;;;;12.83;77.15;101279.78;5034326;28;20065;-43
2021/09/29 03:55:13;;;;;;;10.38;4.38;;;;;;;12.83;77.66;101281.53;5033325;28;20025;-42
2021/09/29 03:57:39;;;;;;;9.27;3.28;;;;;;;12.82;78.20;101280.75;5031910;28;20021;-43
2021/09/29 04:00:07;;;;;;;8.27;3.35;;;;;;;12.78;78.67;101276.94;5033432;28;20021;-42
2021/09/29 04:02:33;;;;;;;8.80;3.63;;;;;;;12.81;78.86;101276.56;5033199;28;20037;-42
2021/09/29 04:04:59;;;;;;;7.07;3.47;;;;;;;12.75;78.45;101279.13;5033427;28;20483;-42
2021/09/29 04:07:25;;;;;;;10.95;3.20;;;;;;;12.73;79.00;101266.31;5033761;28;20030;-42
2021/09/29 04:09:50;;;;;;;8.65;3.80;;;;;;;12.75;78.66;101271.34;5033419;28;20027;-42
2021/09/29 04:12:15;;;;;;;9.32;3.50;;;;;;;12.71;79.27;101270.09;5033773;28;20021;-42
2021/09/29 04:14:41;;;;;;;9.63;3.70;;;;;;;12.69;79.33;101277.25;5037761;28;20029;-43
2021/09/29 04:17:07;;;;;;;8.95;3.38;;;;;;;12.70;79.07;101271.09;5037366;28;20021;-43
2021/09/29 04:19:32;;;;;;;8.50;3.50;;;;;;;12.74;78.99;101264.53;5037155;28;20029;-43
2021/09/29 04:21:57;;;;;;;8.30;3.60;;;;;;;12.65;80.16;101269.84;5037132;28;20060;-43
2021/09/29 04:24:23;;;;;;;12.88;3.97;;;;;;;12.64;79.45;101270.84;5037034;28;20033;-42
2021/09/29 04:26:49;;;;;;;11.70;3.80;;;;;;;12.63;79.77;101265.88;5036956;28;20044;-43
2021/09/29 04:29:14;;;;;;;9.13;4.20;;;;;;;12.63;80.29;101261.47;5037709;28;20515;-42
2021/09/29 04:31:40;;;;;;;10.98;4.00;;;;;;;12.65;80.52;101267.25;5036848;28;20026;-42
2021/09/29 04:34:05;;;;;;;10.88;3.63;;;;;;;12.63;80.10;101251.09;5037173;28;20032;-42
2021/09/29 04:36:30;;;;;;;8.15;3.80;;;;;;;12.56;80.60;101255.44;5036996;28;20095;-43
2021/09/29 04:38:56;;;;;;;9.57;3.75;;;;;;;12.55;80.85;101250.44;5036792;28;20032;-42
2021/09/29 04:41:23;;;;;;;12.77;3.70;;;;;;;12.47;81.22;101242.81;5036712;28;20408;-43
2021/09/29 04:43:48;;;;;;;14.30;3.95;;;;;;;12.53;81.40;101242.84;5037022;28;20028;-42
2021/09/29 04:46:13;;;;;;;11.00;3.75;;;;;;;12.56;81.22;101245.06;5035420;28;20524;-43
2021/09/29 04:48:39;;;;;;;8.88;3.90;;;;;;;12.36;82.23;101238.94;5036601;28;20052;-42
2021/09/29 04:51:05;;;;;;;10.27;4.10;;;;;;;12.46;81.86;101236.00;5037041;28;20025;-42
2021/09/29 04:53:30;;;;;;;11.68;4.15;;;;;;;12.38;82.29;101226.59;5036743;28;20029;-41
2021/09/29 04:56:00;;;;;;;10.63;4.05;;;;;;;12.29;82.98;101236.28;5036593;28;20029;-41
2021/09/29 04:58:26;;;;;;;9.88;4.00;;;;;;;12.29;83.21;101238.88;5036578;28;20025;-42
2021/09/29 05:00:51;;;;;;;11.57;3.97;;;;;;;12.21;83.33;101231.22;5036577;28;20495;-42
2021/09/29 05:03:19;;;;;;;10.80;4.15;;;;;;;12.17;83.59;101230.81;5036316;28;20025;-43
2021/09/29 05:05:44;;;;;;;7.18;3.97;;;;;;;12.25;83.88;101232.44;5036285;28;20361;-43
2021/09/29 05:08:19;;;;;;;9.35;3.95;;;;;;;12.21;84.15;101236.41;5036207;28;20032;-42
2021/09/29 05:10:50;;;;;;;16.17;4.03;;;;;;;12.23;83.78;101237.03;5034994;28;20370;-43
2021/09/29 05:13:25;;;;;;;11.98;3.85;;;;;;;12.15;84.00;101227.59;5036386;28;20032;-42
2021/09/29 05:15:50;;;;;;;14.88;3.92;;;;;;;12.12;84.09;101219.41;5036281;28;20029;-42
2021/09/29 05:18:16;;;;;;;9.38;4.03;;;;;;;12.12;84.41;101220.19;5036496;28;20028;-42
2021/09/29 05:20:41;;;;;;;11.90;4.25;;;;;;;12.07;84.96;101214.75;5034910;28;20153;-42
2021/09/29 05:23:07;;;;;;;9.90;4.07;;;;;;;12.08;84.45;101207.78;5034872;28;20024;-42
2021/09/29 05:25:33;;;;;;;12.60;3.95;;;;;;;12.05;84.56;101214.13;5034193;28;20030;-42
2021/09/29 05:28:00;;;;;;;8.85;3.80;;;;;;;12.06;84.34;101209.78;5034748;28;20044;-42
2021/09/29 05:30:26;;;;;;;10.63;4.22;;;;;;;12.01;84.97;101209.53;5034500;28;20033;-42
2021/09/29 05:32:51;;;;;;;9.63;4.10;;;;;;;12.07;85.15;101211.38;5036299;28;20192;-42
2021/09/29 05:35:16;;;;;;;13.75;4.40;;;;;;;12.06;85.18;101213.16;5035936;28;20071;-42
2021/09/29 05:37:42;;;;;;;9.43;4.07;;;;;;;12.05;84.93;101216.72;5035406;28;20393;-42
2021/09/29 05:40:07;;;;;;;11.10;4.13;;;;;;;12.04;85.12;101215.13;5035910;28;20024;-42
2021/09/29 05:42:33;;;;;;;11.25;3.70;;;;;;;12.09;84.96;101212.00;5034795;28;20029;-41
2021/09/29 05:44:58;;;;;;;11.60;4.40;;;;;;;12.12;84.97;101204.66;5035579;28;20448;-42
2021/09/29 05:47:23;;;;;;;8.00;3.53;;;;;;;12.12;84.69;101199.47;5035452;28;20064;-41
2021/09/29 05:49:48;;;;;;;8.63;3.58;;;;;;;12.07;84.78;101203.59;5035385;28;20051;-41
2021/09/29 05:52:14;;;;;;;7.55;3.50;;;;;;;12.08;85.04;101206.00;5035365;28;20502;-42
2021/09/29 05:54:39;;;;;;;11.43;3.80;;;;;;;12.03;85.05;101200.59;5035324;28;20025;-41
2021/09/29 05:57:05;;;;;;;9.60;3.90;;;;;;;12.04;84.97;101199.59;5035450;28;20029;-41
2021/09/29 05:59:31;;;;;;;8.63;3.38;;;;;;;12.06;84.63;101202.00;5035244;28;20100;-41
2021/09/29 06:01:56;;;;;;;7.85;3.90;;;;;;;12.07;85.11;101203.59;5035346;28;20072;-41
2021/09/29 06:04:21;;;;;;;9.85;3.88;;;;;;;12.11;84.55;101199.66;5035062;28;20021;-41
2021/09/29 06:06:47;;;;;;;11.82;3.90;;;;;;;12.11;84.49;101200.47;5035082;28;20101;-41
2021/09/29 06:09:12;;;;;;;8.18;3.40;;;;;;;12.21;84.63;101194.97;5034954;28;20021;-42
2021/09/29 06:11:37;;;;;;;8.63;3.50;;;;;;;12.18;84.39;101203.91;5034982;28;20029;-42
2021/09/29 06:14:04;;;;;;;9.07;3.88;;;;;;;12.29;84.24;101201.81;5034964;28;20026;-42
2021/09/29 06:16:34;;;;;;;12.60;4.13;;;;;;;12.31;83.61;101202.41;5034730;28;20075;-42
2021/09/29 06:18:59;;;;;;;10.93;3.70;;;;;;;12.42;83.59;101201.88;5035434;28;20022;-42
2021/09/29 06:21:25;;;;;;;11.65;3.72;;;;;;;12.44;83.51;101197.31;5034744;28;20103;-43
2021/09/29 06:23:50;;;;;;;9.90;3.60;;;;;;;12.44;83.11;101206.91;5034920;28;20418;-42
2021/09/29 06:26:15;;;;;;;9.00;3.50;;;;;;;12.57;82.78;101214.75;5034823;28;20032;-42
2021/09/29 06:28:40;;;;;;;8.40;3.42;;;;;;;12.54;83.02;101209.94;5034551;28;20034;-42
2021/09/29 06:31:07;;;;;;;8.23;3.30;;;;;;;12.53;82.96;101216.91;5035033;28;20035;-42
2021/09/29 06:33:33;;;;;;;8.50;3.38;;;;;;;12.63;82.77;101220.00;5034802;28;20358;-42
2021/09/29 06:36:00;;;;;;;10.38;3.53;;;;;;;12.67;83.04;101223.00;5032338;28;20392;-43
2021/09/29 06:38:25;;;;;;;7.03;3.10;;;;;;;12.74;82.37;101220.44;5034192;28;20033;-42
2021/09/29 06:40:51;;;;;;;7.75;3.22;;;;;;;12.58;83.05;101211.97;5034146;28;20109;-42
2021/09/29 06:43:17;;;;;;;9.23;3.72;;;;;;;12.73;82.36;101222.25;5034518;28;20017;-43
2021/09/29 06:45:42;;;;;;;7.85;3.10;;;;;;;12.71;82.45;101219.03;5034245;28;20028;-42
2021/09/29 06:48:10;;;;;;;9.93;3.50;;;;;;;12.65;82.42;101212.00;5034130;28;20022;-42
2021/09/29 06:50:35;;;;;;;11.63;3.20;;;;;;;12.75;82.01;101209.09;5034271;28;20053;-43
2021/09/29 06:53:00;;;;;;;8.27;3.13;;;;;;;12.92;81.89;101213.00;5034107;28;20067;-43
2021/09/29 06:55:26;;;;;;;8.52;3.05;;;;;;;12.93;81.41;101216.38;5034219;28;20021;-43
2021/09/29 06:57:51;;;;;;;8.65;3.22;;;;;;;12.97;81.70;101217.59;5032800;28;20024;-42
2021/09/29 07:00:16;;;;;;;9.98;3.15;;;;;;;12.91;81.53;101211.38;5033954;28;20116;-42
2021/09/29 07:02:44;;;;;;;9.13;3.50;;;;;;;13.00;81.33;101218.00;5034306;28;20105;-43
2021/09/29 07:05:10;;;;;;;11.88;3.55;;;;;;;13.03;81.17;101219.41;5034075;28;20026;-43
2021/09/29 07:07:36;;;;;;;6.60;3.17;;;;;;;13.10;81.30;101220.25;5032744;28;20472;-43
2021/09/29 07:10:04;;;;;;;13.48;3.33;;;;;;;13.15;80.87;101214.47;5033826;28;20026;-43
2021/09/29 07:12:29;;;;;;;7.97;3.28;;;;;;;13.18;81.00;101220.09;5033812;28;20396;-42
2021/09/29 07:14:54;;;;;;;7.60;3.30;;;;;;;13.30;80.87;101225.56;5033850;28;20044;-43
2021/09/29 07:17:20;;;;;;;13.88;2.92;;;;;;;13.39;80.39;101227.00;5033649;28;20358;-43
2021/09/29 07:19:47;;;;;;;11.38;3.58;;;;;;;13.20;81.18;101233.66;5033829;28;20033;-43
2021/09/29 07:22:13;;;;;;;11.25;2.95;;;;;;;13.15;81.28;101232.63;5032242;28;20028;-43
2021/09/29 07:24:38;;;;;;;17.65;3.20;;;;;;;13.22;81.40;101236.06;5033567;28;20021;-43
2021/09/29 07:27:04;;;;;;;14.43;3.50;;;;;;;13.19;82.61;101233.88;5032451;28;20484;-44
2021/09/29 07:29:29;;;;;;;11.50;3.65;;;;;;;13.10;83.28;101248.78;5016071;28;20056;-43
2021/09/29 07:31:55;;;;;;;6.72;3.15;;;;;;;13.07;83.81;101247.38;5032465;28;20079;-44
2021/09/29 07:34:23;;;;;;;11.27;3.80;;;;;;;12.94;84.48;101251.69;5032372;28;20116;-43
2021/09/29 07:36:49;;;;;;;11.93;3.65;;;;;;;12.94;84.26;101255.09;5032122;28;20094;-43
2021/09/29 07:39:14;;;;;;;6.18;3.28;;;;;;;12.95;85.02;101256.69;5032246;28;20476;-43
2021/09/29 07:41:40;;;;;;;11.55;3.75;;;;;;;12.87;85.69;101244.69;5032256;28;20022;-43
2021/09/29 07:44:06;;;;;;;10.73;3.80;;;;;;;12.92;85.54;101243.28;5032235;28;20036;-43
2021/09/29 07:46:32;;;;;;;10.07;3.42;;;;;;;12.91;85.55;101245.09;5032160;28;20392;-43
2021/09/29 07:48:57;;;;;;;8.85;3.60;;;;;;;12.98;85.91;101245.16;5031622;28;20017;-44
2021/09/29 07:51:22;;;;;;;10.70;3.60;;;;;;;12.94;86.61;101247.31;5033176;28;20087;-42
2021/09/29 07:53:48;;;;;;;6.43;3.55;;;;;;;12.94;86.44;101249.88;5033322;28;20021;-42
2021/09/29 07:56:13;;;;;;;8.98;3.40;;;;;;;12.88;86.45;101248.84;5033248;28;20028;-43
2021/09/29 07:58:38;;;;;;;6.28;3.55;;;;;;;12.78;86.71;101239.84;5033817;28;20022;-43
2021/09/29 08:01:04;;;;;;;11.90;3.60;;;;;;;12.90;86.58;101245.28;5033348;28;20033;-43
2021/09/29 08:03:29;;;;;;;12.00;4.13;;;;;;;12.87;86.73;101249.88;5033120;28;20389;-42
2021/09/29 08:05:59;;;;;;;10.05;4.03;;;;;;;12.87;87.63;101247.25;5033243;28;20057;-41
2021/09/29 08:08:24;;;;;;;7.95;3.60;;;;;;;12.90;86.98;101250.47;5031638;28;20025;-42
2021/09/29 08:10:50;;;;;;;9.23;3.70;;;;;;;12.88;87.38;101243.66;5033004;28;20036;-43
2021/09/29 08:13:15;;;;;;;8.15;3.75;;;;;;;12.85;87.32;101240.66;5033073;28;20055;-42
2021/09/29 08:15:40;;;;;;;11.80;3.28;;;;;;;12.87;87.51;101247.25;5033190;28;20029;-42
2021/09/29 08:18:05;;;;;;;7.72;4.03;;;;;;;13.00;87.66;101249.13;5032891;28;20465;-43
2021/09/29 08:20:34;;;;;;;6.85;3.63;;;;;;;12.97;87.32;101246.91;5031727;28;20112;-42
2021/09/29 08:23:10;;;;;;;11.57;3.90;;;;;;;12.87;87.36;101243.88;5032837;28;20079;-43
2021/09/29 08:36:36;;;;;;;10.02;3.20;;;;;;;12.85;86.41;101238.06;5032427;28;20085;-42
2021/09/29 08:39:20;;;;;;;7.82;3.20;;;;;;;13.00;87.14;101254.31;5033028;28;20472;-44
2021/09/29 08:47:04;;;;;;;3.38;2.22;;;;;;;12.75;86.60;101276.53;5032896;28;20025;-42
2021/09/29 08:52:31;;;;;;;5.43;2.25;;;;;;;12.85;85.54;101269.19;5033312;28;20072;-43
2021/09/29 09:16:40;;;;;;;6.68;1.58;;;;;;;12.61;86.34;101263.44;5036204;28;20426;-43
2021/09/29 09:19:11;;;;;;;1.95;1.33;;;;;;;12.69;85.79;101261.69;5035024;28;20384;-43
2021/09/29 09:21:52;;;;;;;6.50;1.60;;;;;;;12.68;85.99;101273.06;5036106;28;20079;-42
2021/09/29 09:24:28;;;;;;;3.17;1.30;;;;;;;12.70;85.40;101271.09;5035854;28;20171;-43
2021/09/29 09:26:57;;;;;;;3.13;1.30;;;;;;;12.52;87.20;101274.16;5035749;28;20025;-42
2021/09/29 09:29:22;;;;;;;4.47;1.40;;;;;;;12.69;85.57;101274.66;5035544;28;20341;-42
2021/09/29 09:31:48;;;;;;;4.57;1.50;;;;;;;12.52;85.67;101279.34;5033841;28;20021;-43
2021/09/29 09:34:13;;;;;;;4.28;1.50;;;;;;;12.48;86.06;101278.09;5035589;28;20028;-43
2021/09/29 09:36:49;;;;;;;1.98;1.38;;;;;;;12.67;85.89;101274.88;5035068;28;20514;-42
2021/09/29 09:39:23;;;;;;;6.22;1.58;;;;;;;12.65;86.36;101276.84;5035389;28;20021;-43
2021/09/29 09:41:53;;;;;;;4.70;1.60;;;;;;;12.98;85.69;101289.25;5035333;28;20182;-43
2021/09/29 09:44:33;;;;;;;1.63;1.20;;;;;;;12.97;86.15;101277.25;5035526;28;20132;-43
2021/09/29 09:47:08;;;;;;;3.10;1.45;;;;;;;12.67;86.44;101285.22;5035688;28;20092;-43
2021/09/29 09:52:55;;;;;;;4.55;1.40;;;;;;;12.81;85.77;101294.72;5035783;28;20052;-43
2021/09/29 09:55:25;;;;;;;4.65;1.50;;;;;;;12.92;85.41;101295.16;5034769;28;20022;-43
2021/09/29 09:57:56;;;;;;;4.43;1.50;;;;;;;12.90;85.45;101302.34;5034902;28;20108;-43
2021/09/29 10:00:27;;;;;;;8.45;1.33;;;;;;;12.99;85.06;101309.00;5035303;28;20112;-43
2021/09/29 10:02:55;;;;;;;6.28;1.52;;;;;;;13.02;85.87;101322.38;5035596;28;20040;-42
2021/09/29 10:05:23;;;;;;;5.15;1.35;;;;;;;13.11;86.03;101317.84;5035899;28;20071;-43
2021/09/29 10:07:49;;;;;;;2.22;0.98;;;;;;;12.93;85.08;101326.13;5034770;28;20021;-42
2021/09/29 10:10:23;;;;;;;2.85;1.27;;;;;;;12.87;86.74;101330.28;5034782;28;20112;-43
2021/09/29 10:24:01;;;;;;;4.25;1.48;;;;;;;12.67;86.63;101355.25;5035386;28;20087;-43
2021/09/29 10:26:27;;;;;;;5.35;1.63;;;;;;;12.64;86.63;101353.81;5034658;28;20025;-42
2021/09/29 10:29:07;;;;;;;4.72;1.40;;;;;;;12.72;86.28;101336.56;5033297;28;20079;-43
2021/09/29 10:31:56;;;;;;;3.20;1.50;;;;;;;12.69;84.86;101326.53;5034491;28;20048;-42
2021/09/29 10:37:11;;;;;;;2.83;1.30;;;;;;;12.63;85.35;101344.44;5034479;28;20058;-42
2021/09/29 10:42:37;;;;;;;5.75;1.65;;;;;;;12.60;85.72;101381.13;5035209;28;20495;-42
2021/09/29 11:04:52;;;;;;;1.42;0.75;;;;;;;12.42;84.84;101391.91;5034737;28;20044;-43
2021/09/29 11:10:26;;;;;;;2.72;1.13;;;;;;;12.24;85.97;101383.75;5034400;28;20036;-43
2021/09/29 11:32:41;;;;;;;4.80;1.65;;;;;;;12.62;83.88;101407.66;5033647;28;20454;-43
2021/09/29 11:35:22;;;;;;;5.07;1.20;;;;;;;12.91;84.95;101405.91;5032311;28;20488;-42
2021/09/29 12:07:57;;;;;;;4.47;1.30;;;;;;;13.80;81.31;101430.50;5033664;28;20075;-42
2021/09/29 12:08:08;;;;;;;6.45;1.17;;;;;;;14.47;78.00;101452.38;5033334;28;20084;-43
2021/09/29 12:10:35;;;;;;;6.03;1.10;;;;;;;14.49;79.60;101445.97;5032926;28;20026;-43
2021/09/29 12:13:05;;;;;;;4.32;1.40;;;;;;;14.72;78.14;101453.44;5032951;28;20108;-42
2021/09/29 12:15:30;;;;;;;4.93;1.20;;;;;;;14.66;78.29;101449.03;5032967;28;20041;-42
2021/09/29 12:17:57;;;;;;;6.70;1.23;;;;;;;14.78;79.58;101451.88;5032806;28;20159;-42
2021/09/29 12:20:25;;;;;;;4.20;1.30;;;;;;;14.81;78.32;101454.06;5033060;28;20017;-42
2021/09/29 12:22:55;;;;;;;5.25;1.52;;;;;;;14.82;77.71;101459.09;5031415;28;20326;-43
2021/09/29 12:25:51;;;;;;;5.35;1.50;;;;;;;14.72;78.53;101456.06;5032712;28;20460;-42
2021/09/29 12:28:35;;;;;;;6.60;1.50;;;;;;;15.01;76.25;101454.09;5032324;28;20038;-43
2021/09/29 12:33:54;;;;;;;4.35;1.63;;;;;;;15.84;75.96;101454.41;5033157;28;20096;-42
2021/09/29 12:36:27;;;;;;;4.38;1.30;;;;;;;17.16;70.63;101449.47;5036102;28;20120;-42
2021/09/29 12:38:52;;;;;;;11.38;1.58;;;;;;;17.84;68.89;101451.25;5036862;28;20040;-42
2021/09/29 12:41:18;;;;;;;6.25;1.40;;;;;;;18.16;66.33;101451.09;5036828;28;20460;-42
2021/09/29 12:43:43;;;;;;;6.75;1.65;;;;;;;17.52;64.59;101459.22;5036625;28;20031;-42
2021/09/29 12:46:13;;;;;;;9.93;1.90;;;;;;;16.56;62.66;101456.91;5036509;28;20472;-43
2021/09/29 12:48:42;;;;;;;4.60;1.20;;;;;;;16.41;65.43;101458.00;5036921;28;20033;-42
2021/09/29 12:51:09;;;;;;;7.70;1.58;;;;;;;16.00;66.42;101461.78;5036392;28;20384;-42
2021/09/29 12:53:55;;;;;;;10.82;1.52;;;;;;;15.61;68.37;101474.88;5035037;28;20141;-42
2021/09/29 12:56:20;;;;;;;6.18;1.42;;;;;;;15.25;69.70;101468.31;5036630;28;20468;-42
2021/09/29 12:58:46;;;;;;;8.30;1.13;;;;;;;14.56;69.28;101482.44;5036444;28;20059;-42
2021/09/29 13:01:11;;;;;;;6.05;1.13;;;;;;;13.73;70.71;101485.84;5036071;28;20503;-42
2021/09/29 13:03:37;;;;;;;3.50;1.10;;;;;;;13.48;73.19;101485.44;5034836;28;20376;-43
2021/09/29 13:06:05;;;;;;;4.47;1.10;;;;;;;13.69;74.38;101489.00;5036356;28;20028;-42
2021/09/29 13:08:30;;;;;;;4.88;1.35;;;;;;;14.05;73.59;101490.63;5036355;28;20440;-42
2021/09/29 13:10:58;;;;;;;7.00;1.13;;;;;;;14.10;73.81;101488.25;5036071;28;20021;-42
2021/09/29 13:13:23;;;;;;;9.10;1.80;;;;;;;14.35;74.88;101502.31;5036232;28;20032;-42
2021/09/29 13:15:52;;;;;;;12.02;2.10;;;;;;;14.37;76.53;101515.16;5034660;28;20018;-42
2021/09/29 13:20:45;;;;;;;6.20;1.40;;;;;;;13.92;72.62;101538.88;5036151;28;20033;-43
2021/09/29 13:23:23;;;;;;;9.05;1.05;;;;;;;13.52;72.92;101537.81;5036129;28;20115;-43
2021/09/29 13:36:34;;;;;;;7.00;1.38;;;;;;;13.07;73.62;101550.16;5035537;28;20060;-43
2021/09/29 13:39:00;;;;;;;8.05;1.50;;;;;;;13.19;74.84;101556.47;5036100;28;20064;-43
2021/09/29 13:41:25;;;;;;;9.23;1.20;;;;;;;13.68;71.92;101560.13;5035712;28;20059;-43
2021/09/29 13:43:50;;;;;;;5.43;1.10;;;;;;;13.92;70.65;101567.47;5035487;28;20087;-43
2021/09/29 13:46:16;;;;;;;4.38;1.23;;;;;;;13.71;72.09;101576.13;5035259;28;20024;-43
2021/09/29 13:52:05;;;;;;;6.35;1.02;;;;;;;13.58;70.18;101585.59;5035674;28;20048;-43